Twin Springs, Nevada Weather observations

Data are for observation ending at time listed.
 Day   Time    Ave.   Ave.  Ave.  Vector   Max.   Stn.    Total    Solar   Ave.  
  of    of     Air    Rel.  Wind   Wind    Wind   Baro.  Precip.   Rad.    Soil  
Year   Day     Temp.  Hum.  Speed  Dir.    Gust   Pres.                    Temp. 
2016   (PST)    F      %     mph   deg.    mph     mb.     in.     W/m2     F   
------------------------------------------------------------------------------
 145    3:00   44.9    45    2.1   356      5.1    837     0.00       0    62.5
 145    4:00   44.5    48    3.7   335      7.3    837     0.00       0    61.5
 145    5:00   39.6    57    3.9   314      5.6    837     0.00       7    60.5
 145    6:00   45.4    47    3.1   340      7.4    838     0.00     128    59.6
 145    7:00   51.6    41    3.9   327      9.3    838     0.00     363    58.8
 145    8:00   55.7    36    4.0   352      8.8    838     0.00     577    58.7
 145    9:00   60.4    29    2.7   284      7.7    838     0.00     784    59.5
 145   10:00   61.5    26    5.6   180     18.1    838     0.00     567    61.2
 145   11:00   64.5    20   12.9   137     25.1    838     0.00     981    63.6
 145   12:00   65.2    20   10.3   156     24.6    838     0.00     895    66.0
 145   13:00   63.3    23    9.8   239     21.7    838     0.00     459    68.9
 145   14:00   65.1    22   11.9   244     25.9    838     0.00     987    70.1
 145   15:00   61.2    28   12.8   179     25.4    839     0.00     464    70.5
 145   16:00   59.1    36   11.2   214     23.4    840     0.00     451    70.6
 145   17:00   58.0    37   12.0   208     25.6    840     0.00     457    70.5
 145   18:00   59.8    30    7.9   222     17.5    840     0.00     224    70.5
 145   19:00   55.7    42   10.8   257     18.5    841     0.00      22    70.0
 145   20:00   52.6    49    6.5   256     16.1    842     0.00       0    68.9
 145   21:00   51.6    51    4.1   269     10.3    842     0.00       0    67.6
 145   22:00   50.7    53    3.8   274     10.4    843     0.00       0    66.3
 145   23:00   49.4    55    3.1   313      6.6    843     0.00       0    65.2
 146    0:00   48.9    56    4.3   296      7.7    843     0.00       0    64.2
 146    1:00   45.7    63    3.8   350      6.1    843     0.00       0    63.4
 146    2:00   43.8    66    3.2   349      5.8    843     0.00       0    62.5

Return to Twin Springs, Nevada graphs page.


Western Regional Climate Center,wrcc@dri.edu